sensor_id;sensor_type;location;lat;lon;timestamp;P1;durP1;ratioP1;P2;durP2;ratioP2
10465;SDS011;5280;42.600;23.556;2024-01-15T00:00:16;8.47;;;5.67;;
10465;SDS011;5280;42.600;23.556;2024-01-15T00:02:44;9.47;;;5.57;;
10465;SDS011;5280;42.600;23.556;2024-01-15T00:05:12;7.77;;;5.30;;
10465;SDS011;5280;42.600;23.556;2024-01-15T00:07:43;9.80;;;5.30;;
10465;SDS011;5280;42.600;23.556;2024-01-15T00:10:10;9.37;;;5.20;;
10465;SDS011;5280;42.600;23.556;2024-01-15T00:12:37;8.57;;;5.70;;
10465;SDS011;5280;42.600;23.556;2024-01-15T00:15:05;8.10;;;5.30;;
10465;SDS011;5280;42.600;23.556;2024-01-15T00:17:32;9.60;;;5.47;;
10465;SDS011;5280;42.600;23.556;2024-01-15T00:19:59;7.43;;;4.50;;
10465;SDS011;5280;42.600;23.556;2024-01-15T00:22:31;7.20;;;5.07;;
10465;SDS011;5280;42.600;23.556;2024-01-15T00:25:00;8.93;;;5.30;;
10465;SDS011;5280;42.600;23.556;2024-01-15T00:27:28;7.17;;;4.83;;
10465;SDS011;5280;42.600;23.556;2024-01-15T00:29:55;7.70;;;5.20;;
10465;SDS011;5280;42.600;23.556;2024-01-15T00:32:22;8.17;;;4.83;;
10465;SDS011;5280;42.600;23.556;2024-01-15T00:34:49;6.53;;;4.70;;
10465;SDS011;5280;42.600;23.556;2024-01-15T00:37:16;7.30;;;4.37;;
10465;SDS011;5280;42.600;23.556;2024-01-15T00:39:45;6.27;;;4.67;;
10465;SDS011;5280;42.600;23.556;2024-01-15T00:42:12;7.70;;;4.83;;
10465;SDS011;5280;42.600;23.556;2024-01-15T00:44:39;8.43;;;5.30;;
10465;SDS011;5280;42.600;23.556;2024-01-15T00:47:06;11.03;;;5.33;;
10465;SDS011;5280;42.600;23.556;2024-01-15T00:49:33;9.80;;;5.47;;
10465;SDS011;5280;42.600;23.556;2024-01-15T00:52:00;6.97;;;5.07;;
10465;SDS011;5280;42.600;23.556;2024-01-15T00:54:27;8.83;;;5.70;;
10465;SDS011;5280;42.600;23.556;2024-01-15T00:56:55;9.33;;;5.67;;
10465;SDS011;5280;42.600;23.556;2024-01-15T00:59:23;7.13;;;4.80;;
10465;SDS011;5280;42.600;23.556;2024-01-15T01:01:50;7.17;;;5.10;;
10465;SDS011;5280;42.600;23.556;2024-01-15T01:04:17;7.27;;;4.60;;
10465;SDS011;5280;42.600;23.556;2024-01-15T01:06:44;6.50;;;4.87;;
10465;SDS011;5280;42.600;23.556;2024-01-15T01:09:11;8.47;;;4.30;;
10465;SDS011;5280;42.600;23.556;2024-01-15T01:11:41;15.00;;;5.40;;
10465;SDS011;5280;42.600;23.556;2024-01-15T01:14:09;9.67;;;5.40;;
10465;SDS011;5280;42.600;23.556;2024-01-15T01:16:40;7.20;;;4.80;;
10465;SDS011;5280;42.600;23.556;2024-01-15T01:19:07;8.73;;;5.50;;
10465;SDS011;5280;42.600;23.556;2024-01-15T01:21:34;12.67;;;6.27;;
10465;SDS011;5280;42.600;23.556;2024-01-15T01:24:01;6.40;;;5.03;;
10465;SDS011;5280;42.600;23.556;2024-01-15T01:26:32;11.07;;;6.07;;
10465;SDS011;5280;42.600;23.556;2024-01-15T01:28:59;9.17;;;6.13;;
10465;SDS011;5280;42.600;23.556;2024-01-15T01:31:27;10.87;;;5.83;;
10465;SDS011;5280;42.600;23.556;2024-01-15T01:33:54;11.40;;;5.70;;
10465;SDS011;5280;42.600;23.556;2024-01-15T01:36:22;8.97;;;5.03;;
10465;SDS011;5280;42.600;23.556;2024-01-15T01:38:49;10.13;;;5.73;;
10465;SDS011;5280;42.600;23.556;2024-01-15T01:41:16;7.30;;;5.27;;
10465;SDS011;5280;42.600;23.556;2024-01-15T01:43:43;8.60;;;5.73;;
10465;SDS011;5280;42.600;23.556;2024-01-15T01:46:10;9.63;;;5.60;;
10465;SDS011;5280;42.600;23.556;2024-01-15T01:48:39;7.47;;;5.60;;
10465;SDS011;5280;42.600;23.556;2024-01-15T01:51:06;8.43;;;6.07;;
10465;SDS011;5280;42.600;23.556;2024-01-15T01:53:34;9.63;;;6.10;;
10465;SDS011;5280;42.600;23.556;2024-01-15T01:56:03;9.60;;;5.77;;
10465;SDS011;5280;42.600;23.556;2024-01-15T01:58:31;9.03;;;6.10;;
10465;SDS011;5280;42.600;23.556;2024-01-15T02:01:02;10.30;;;6.07;;
10465;SDS011;5280;42.600;23.556;2024-01-15T02:03:30;8.63;;;5.90;;
10465;SDS011;5280;42.600;23.556;2024-01-15T02:05:59;9.57;;;5.33;;
10465;SDS011;5280;42.600;23.556;2024-01-15T02:08:26;13.60;;;6.30;;
10465;SDS011;5280;42.600;23.556;2024-01-15T02:10:53;9.53;;;5.37;;
10465;SDS011;5280;42.600;23.556;2024-01-15T02:13:22;9.47;;;5.40;;
10465;SDS011;5280;42.600;23.556;2024-01-15T02:15:51;11.00;;;5.70;;
10465;SDS011;5280;42.600;23.556;2024-01-15T02:18:18;10.00;;;5.47;;
10465;SDS011;5280;42.600;23.556;2024-01-15T02:20:46;10.10;;;6.43;;
10465;SDS011;5280;42.600;23.556;2024-01-15T02:23:14;9.73;;;5.50;;
10465;SDS011;5280;42.600;23.556;2024-01-15T02:25:42;12.20;;;5.93;;
10465;SDS011;5280;42.600;23.556;2024-01-15T02:28:12;10.77;;;5.73;;
10465;SDS011;5280;42.600;23.556;2024-01-15T02:30:42;9.37;;;5.80;;
10465;SDS011;5280;42.600;23.556;2024-01-15T02:33:12;8.67;;;6.20;;
10465;SDS011;5280;42.600;23.556;2024-01-15T02:35:46;7.70;;;5.53;;
10465;SDS011;5280;42.600;23.556;2024-01-15T02:38:16;8.27;;;5.93;;
10465;SDS011;5280;42.600;23.556;2024-01-15T02:40:43;9.20;;;4.80;;
10465;SDS011;5280;42.600;23.556;2024-01-15T02:43:13;8.60;;;5.67;;
10465;SDS011;5280;42.600;23.556;2024-01-15T02:45:44;8.37;;;5.30;;
10465;SDS011;5280;42.600;23.556;2024-01-15T02:48:11;8.97;;;5.50;;
10465;SDS011;5280;42.600;23.556;2024-01-15T02:50:38;9.70;;;6.13;;
10465;SDS011;5280;42.600;23.556;2024-01-15T02:53:05;9.50;;;5.57;;
10465;SDS011;5280;42.600;23.556;2024-01-15T02:55:34;8.93;;;5.87;;
10465;SDS011;5280;42.600;23.556;2024-01-15T02:58:01;10.73;;;6.33;;
10465;SDS011;5280;42.600;23.556;2024-01-15T03:00:30;7.17;;;5.77;;
10465;SDS011;5280;42.600;23.556;2024-01-15T03:02:57;9.57;;;5.87;;
10465;SDS011;5280;42.600;23.556;2024-01-15T03:05:25;13.60;;;6.07;;
10465;SDS011;5280;42.600;23.556;2024-01-15T03:07:52;9.90;;;5.60;;
10465;SDS011;5280;42.600;23.556;2024-01-15T03:10:19;10.40;;;5.80;;
10465;SDS011;5280;42.600;23.556;2024-01-15T03:12:47;9.87;;;5.63;;
10465;SDS011;5280;42.600;23.556;2024-01-15T03:15:17;10.17;;;6.30;;
10465;SDS011;5280;42.600;23.556;2024-01-15T03:17:44;9.63;;;5.40;;
10465;SDS011;5280;42.600;23.556;2024-01-15T03:20:12;8.47;;;4.87;;
10465;SDS011;5280;42.600;23.556;2024-01-15T03:22:39;9.27;;;5.17;;
10465;SDS011;5280;42.600;23.556;2024-01-15T03:25:08;8.57;;;5.50;;
10465;SDS011;5280;42.600;23.556;2024-01-15T03:27:35;7.40;;;4.73;;
10465;SDS011;5280;42.600;23.556;2024-01-15T03:30:07;6.90;;;4.70;;
10465;SDS011;5280;42.600;23.556;2024-01-15T03:32:34;5.97;;;4.03;;
10465;SDS011;5280;42.600;23.556;2024-01-15T03:35:01;6.77;;;4.13;;
10465;SDS011;5280;42.600;23.556;2024-01-15T03:37:29;5.73;;;3.53;;
10465;SDS011;5280;42.600;23.556;2024-01-15T03:39:56;5.90;;;3.97;;
10465;SDS011;5280;42.600;23.556;2024-01-15T03:42:23;7.03;;;4.20;;
10465;SDS011;5280;42.600;23.556;2024-01-15T03:44:50;5.83;;;3.63;;
10465;SDS011;5280;42.600;23.556;2024-01-15T03:47:18;6.40;;;3.90;;
10465;SDS011;5280;42.600;23.556;2024-01-15T03:49:45;5.50;;;4.10;;
10465;SDS011;5280;42.600;23.556;2024-01-15T03:52:13;8.67;;;4.13;;
10465;SDS011;5280;42.600;23.556;2024-01-15T03:54:40;7.87;;;4.90;;
10465;SDS011;5280;42.600;23.556;2024-01-15T03:57:07;7.77;;;4.70;;
10465;SDS011;5280;42.600;23.556;2024-01-15T03:59:34;8.73;;;4.83;;
10465;SDS011;5280;42.600;23.556;2024-01-15T04:02:01;9.20;;;4.70;;
10465;SDS011;5280;42.600;23.556;2024-01-15T04:04:30;8.33;;;5.30;;
10465;SDS011;5280;42.600;23.556;2024-01-15T04:06:58;9.33;;;5.47;;
10465;SDS011;5280;42.600;23.556;2024-01-15T04:09:25;7.50;;;5.13;;
10465;SDS011;5280;42.600;23.556;2024-01-15T04:11:52;7.60;;;4.53;;
10465;SDS011;5280;42.600;23.556;2024-01-15T04:14:21;7.83;;;4.80;;
10465;SDS011;5280;42.600;23.556;2024-01-15T04:16:49;8.47;;;4.57;;
10465;SDS011;5280;42.600;23.556;2024-01-15T04:19:21;8.47;;;4.40;;
10465;SDS011;5280;42.600;23.556;2024-01-15T04:21:50;8.23;;;4.97;;
10465;SDS011;5280;42.600;23.556;2024-01-15T04:24:19;6.83;;;4.73;;
10465;SDS011;5280;42.600;23.556;2024-01-15T04:26:46;6.17;;;4.57;;
10465;SDS011;5280;42.600;23.556;2024-01-15T04:29:14;6.87;;;5.20;;
10465;SDS011;5280;42.600;23.556;2024-01-15T04:31:41;8.43;;;5.13;;
10465;SDS011;5280;42.600;23.556;2024-01-15T04:34:10;6.83;;;4.90;;
10465;SDS011;5280;42.600;23.556;2024-01-15T04:36:40;11.50;;;5.20;;
10465;SDS011;5280;42.600;23.556;2024-01-15T04:39:09;8.63;;;4.57;;
10465;SDS011;5280;42.600;23.556;2024-01-15T04:41:37;8.43;;;5.00;;
10465;SDS011;5280;42.600;23.556;2024-01-15T04:44:04;8.30;;;4.87;;
10465;SDS011;5280;42.600;23.556;2024-01-15T04:46:31;5.73;;;4.33;;
10465;SDS011;5280;42.600;23.556;2024-01-15T04:48:58;5.87;;;4.37;;
10465;SDS011;5280;42.600;23.556;2024-01-15T04:51:27;8.67;;;5.10;;
10465;SDS011;5280;42.600;23.556;2024-01-15T04:53:56;7.03;;;4.27;;
10465;SDS011;5280;42.600;23.556;2024-01-15T04:56:27;6.00;;;4.47;;
10465;SDS011;5280;42.600;23.556;2024-01-15T04:58:57;7.10;;;4.73;;
10465;SDS011;5280;42.600;23.556;2024-01-15T05:01:24;7.30;;;5.07;;
10465;SDS011;5280;42.600;23.556;2024-01-15T05:03:51;7.83;;;4.57;;
10465;SDS011;5280;42.600;23.556;2024-01-15T05:06:21;8.67;;;4.40;;
10465;SDS011;5280;42.600;23.556;2024-01-15T05:08:48;9.20;;;4.43;;
10465;SDS011;5280;42.600;23.556;2024-01-15T05:11:18;9.97;;;5.33;;
10465;SDS011;5280;42.600;23.556;2024-01-15T05:13:46;8.87;;;4.70;;
10465;SDS011;5280;42.600;23.556;2024-01-15T05:16:13;7.57;;;4.90;;
10465;SDS011;5280;42.600;23.556;2024-01-15T05:18:40;6.07;;;4.47;;
10465;SDS011;5280;42.600;23.556;2024-01-15T05:21:08;7.80;;;4.63;;
10465;SDS011;5280;42.600;23.556;2024-01-15T05:23:36;8.53;;;4.80;;
10465;SDS011;5280;42.600;23.556;2024-01-15T05:26:03;8.40;;;4.07;;
10465;SDS011;5280;42.600;23.556;2024-01-15T05:28:30;7.67;;;4.33;;
10465;SDS011;5280;42.600;23.556;2024-01-15T05:30:58;7.43;;;4.90;;
10465;SDS011;5280;42.600;23.556;2024-01-15T05:33:26;7.90;;;4.57;;
10465;SDS011;5280;42.600;23.556;2024-01-15T05:35:53;31.93;;;24.30;;
10465;SDS011;5280;42.600;23.556;2024-01-15T05:38:20;7.83;;;5.20;;
10465;SDS011;5280;42.600;23.556;2024-01-15T05:40:47;8.90;;;4.87;;
10465;SDS011;5280;42.600;23.556;2024-01-15T05:43:14;7.60;;;4.87;;
10465;SDS011;5280;42.600;23.556;2024-01-15T05:45:42;5.70;;;4.60;;
10465;SDS011;5280;42.600;23.556;2024-01-15T05:48:11;7.03;;;4.60;;
10465;SDS011;5280;42.600;23.556;2024-01-15T05:50:38;6.87;;;4.67;;
10465;SDS011;5280;42.600;23.556;2024-01-15T05:53:05;6.13;;;3.90;;
10465;SDS011;5280;42.600;23.556;2024-01-15T05:55:35;5.53;;;3.53;;
10465;SDS011;5280;42.600;23.556;2024-01-15T05:58:03;10.87;;;7.17;;
10465;SDS011;5280;42.600;23.556;2024-01-15T06:00:30;15.80;;;8.70;;
10465;SDS011;5280;42.600;23.556;2024-01-15T06:03:01;11.07;;;6.23;;
10465;SDS011;5280;42.600;23.556;2024-01-15T06:05:29;6.40;;;4.17;;
10465;SDS011;5280;42.600;23.556;2024-01-15T06:07:56;7.70;;;4.53;;
10465;SDS011;5280;42.600;23.556;2024-01-15T06:10:23;6.13;;;4.57;;
10465;SDS011;5280;42.600;23.556;2024-01-15T06:12:50;4.73;;;3.83;;
10465;SDS011;5280;42.600;23.556;2024-01-15T06:15:17;6.33;;;4.10;;
10465;SDS011;5280;42.600;23.556;2024-01-15T06:17:44;7.23;;;4.27;;
10465;SDS011;5280;42.600;23.556;2024-01-15T06:20:15;5.93;;;4.10;;
10465;SDS011;5280;42.600;23.556;2024-01-15T06:22:43;7.87;;;3.93;;
10465;SDS011;5280;42.600;23.556;2024-01-15T06:25:10;7.23;;;4.70;;
10465;SDS011;5280;42.600;23.556;2024-01-15T06:27:37;10.93;;;4.90;;
10465;SDS011;5280;42.600;23.556;2024-01-15T06:30:07;5.07;;;4.20;;
10465;SDS011;5280;42.600;23.556;2024-01-15T06:32:35;9.20;;;4.80;;
10465;SDS011;5280;42.600;23.556;2024-01-15T06:35:02;9.33;;;5.80;;
10465;SDS011;5280;42.600;23.556;2024-01-15T06:37:29;11.43;;;6.83;;
10465;SDS011;5280;42.600;23.556;2024-01-15T06:39:59;14.63;;;6.00;;
10465;SDS011;5280;42.600;23.556;2024-01-15T06:42:26;8.73;;;5.60;;
10465;SDS011;5280;42.600;23.556;2024-01-15T06:44:53;6.57;;;4.97;;
10465;SDS011;5280;42.600;23.556;2024-01-15T06:47:20;7.33;;;4.83;;
10465;SDS011;5280;42.600;23.556;2024-01-15T06:49:47;6.73;;;4.00;;
10465;SDS011;5280;42.600;23.556;2024-01-15T06:52:15;7.07;;;4.00;;
10465;SDS011;5280;42.600;23.556;2024-01-15T06:54:42;6.57;;;4.03;;
10465;SDS011;5280;42.600;23.556;2024-01-15T06:57:11;4.17;;;3.43;;
10465;SDS011;5280;42.600;23.556;2024-01-15T06:59:38;6.83;;;4.57;;
10465;SDS011;5280;42.600;23.556;2024-01-15T07:02:06;6.17;;;4.40;;
10465;SDS011;5280;42.600;23.556;2024-01-15T07:04:33;7.07;;;4.50;;
10465;SDS011;5280;42.600;23.556;2024-01-15T07:07:00;7.17;;;4.07;;
10465;SDS011;5280;42.600;23.556;2024-01-15T07:09:27;7.20;;;3.87;;
10465;SDS011;5280;42.600;23.556;2024-01-15T07:11:54;6.50;;;4.40;;
10465;SDS011;5280;42.600;23.556;2024-01-15T07:14:24;5.83;;;4.27;;
10465;SDS011;5280;42.600;23.556;2024-01-15T07:16:51;8.40;;;4.43;;
10465;SDS011;5280;42.600;23.556;2024-01-15T07:19:18;6.33;;;4.63;;
10465;SDS011;5280;42.600;23.556;2024-01-15T07:21:45;7.00;;;4.57;;
10465;SDS011;5280;42.600;23.556;2024-01-15T07:24:12;7.30;;;4.73;;
10465;SDS011;5280;42.600;23.556;2024-01-15T07:26:39;7.43;;;5.13;;
10465;SDS011;5280;42.600;23.556;2024-01-15T07:29:06;11.20;;;6.83;;
10465;SDS011;5280;42.600;23.556;2024-01-15T07:31:35;9.40;;;6.70;;
10465;SDS011;5280;42.600;23.556;2024-01-15T07:34:02;12.43;;;6.87;;
10465;SDS011;5280;42.600;23.556;2024-01-15T07:36:30;11.40;;;7.17;;
10465;SDS011;5280;42.600;23.556;2024-01-15T07:38:57;13.47;;;8.13;;
10465;SDS011;5280;42.600;23.556;2024-01-15T07:41:24;16.47;;;9.67;;
10465;SDS011;5280;42.600;23.556;2024-01-15T07:43:51;15.00;;;9.33;;
10465;SDS011;5280;42.600;23.556;2024-01-15T07:46:18;21.60;;;9.77;;
10465;SDS011;5280;42.600;23.556;2024-01-15T07:48:46;13.03;;;8.40;;
10465;SDS011;5280;42.600;23.556;2024-01-15T07:51:16;13.87;;;8.90;;
10465;SDS011;5280;42.600;23.556;2024-01-15T07:53:50;12.27;;;8.60;;
10465;SDS011;5280;42.600;23.556;2024-01-15T07:56:20;15.30;;;9.73;;
10465;SDS011;5280;42.600;23.556;2024-01-15T07:58:47;14.50;;;9.13;;
10465;SDS011;5280;42.600;23.556;2024-01-15T08:01:14;28.27;;;13.53;;
10465;SDS011;5280;42.600;23.556;2024-01-15T08:03:42;26.83;;;14.80;;
10465;SDS011;5280;42.600;23.556;2024-01-15T08:06:13;31.83;;;15.97;;
10465;SDS011;5280;42.600;23.556;2024-01-15T08:08:41;25.77;;;14.50;;
10465;SDS011;5280;42.600;23.556;2024-01-15T08:11:09;21.83;;;14.43;;
10465;SDS011;5280;42.600;23.556;2024-01-15T08:13:36;24.97;;;16.23;;
10465;SDS011;5280;42.600;23.556;2024-01-15T08:16:03;27.17;;;16.63;;
10465;SDS011;5280;42.600;23.556;2024-01-15T08:18:30;23.90;;;16.50;;
10465;SDS011;5280;42.600;23.556;2024-01-15T08:20:58;24.27;;;16.30;;
10465;SDS011;5280;42.600;23.556;2024-01-15T08:23:26;25.33;;;14.77;;
10465;SDS011;5280;42.600;23.556;2024-01-15T08:25:56;19.23;;;13.27;;
10465;SDS011;5280;42.600;23.556;2024-01-15T08:28:24;24.33;;;12.27;;
10465;SDS011;5280;42.600;23.556;2024-01-15T08:30:51;21.37;;;12.17;;
10465;SDS011;5280;42.600;23.556;2024-01-15T08:33:18;15.97;;;9.97;;
10465;SDS011;5280;42.600;23.556;2024-01-15T08:35:45;19.33;;;11.10;;
10465;SDS011;5280;42.600;23.556;2024-01-15T08:38:12;15.93;;;9.90;;
10465;SDS011;5280;42.600;23.556;2024-01-15T08:40:40;17.40;;;9.80;;
10465;SDS011;5280;42.600;23.556;2024-01-15T08:43:07;17.47;;;10.63;;
10465;SDS011;5280;42.600;23.556;2024-01-15T08:45:37;17.53;;;10.47;;
10465;SDS011;5280;42.600;23.556;2024-01-15T08:48:04;17.23;;;10.57;;
10465;SDS011;5280;42.600;23.556;2024-01-15T08:50:31;23.07;;;14.30;;
10465;SDS011;5280;42.600;23.556;2024-01-15T08:52:58;19.03;;;13.00;;
10465;SDS011;5280;42.600;23.556;2024-01-15T08:55:25;18.83;;;12.73;;
10465;SDS011;5280;42.600;23.556;2024-01-15T08:57:53;26.17;;;17.33;;
10465;SDS011;5280;42.600;23.556;2024-01-15T09:00:21;28.77;;;18.43;;
10465;SDS011;5280;42.600;23.556;2024-01-15T09:02:48;25.37;;;16.47;;
10465;SDS011;5280;42.600;23.556;2024-01-15T09:05:15;32.30;;;17.83;;
10465;SDS011;5280;42.600;23.556;2024-01-15T09:07:42;27.33;;;16.77;;
10465;SDS011;5280;42.600;23.556;2024-01-15T09:10:11;25.83;;;17.00;;
10465;SDS011;5280;42.600;23.556;2024-01-15T09:12:38;26.30;;;15.77;;
10465;SDS011;5280;42.600;23.556;2024-01-15T09:15:07;29.10;;;17.70;;
10465;SDS011;5280;42.600;23.556;2024-01-15T09:17:34;22.93;;;15.53;;
10465;SDS011;5280;42.600;23.556;2024-01-15T09:20:01;24.20;;;15.10;;
10465;SDS011;5280;42.600;23.556;2024-01-15T09:22:29;27.30;;;15.93;;
10465;SDS011;5280;42.600;23.556;2024-01-15T09:24:56;20.63;;;12.80;;
10465;SDS011;5280;42.600;23.556;2024-01-15T09:27:24;23.40;;;14.30;;
10465;SDS011;5280;42.600;23.556;2024-01-15T09:29:52;15.40;;;9.90;;
10465;SDS011;5280;42.600;23.556;2024-01-15T09:32:20;51.60;;;29.77;;
10465;SDS011;5280;42.600;23.556;2024-01-15T09:34:48;18.93;;;10.57;;
10465;SDS011;5280;42.600;23.556;2024-01-15T09:37:15;24.50;;;15.80;;
10465;SDS011;5280;42.600;23.556;2024-01-15T09:39:42;12.90;;;8.70;;
10465;SDS011;5280;42.600;23.556;2024-01-15T09:42:09;18.87;;;12.37;;
10465;SDS011;5280;42.600;23.556;2024-01-15T09:44:38;24.63;;;14.23;;
10465;SDS011;5280;42.600;23.556;2024-01-15T09:47:05;22.47;;;14.43;;
10465;SDS011;5280;42.600;23.556;2024-01-15T09:49:34;19.67;;;12.90;;
10465;SDS011;5280;42.600;23.556;2024-01-15T09:52:02;22.93;;;12.03;;
10465;SDS011;5280;42.600;23.556;2024-01-15T09:54:31;21.83;;;13.57;;
10465;SDS011;5280;42.600;23.556;2024-01-15T09:57:00;22.37;;;11.83;;
10465;SDS011;5280;42.600;23.556;2024-01-15T09:59:27;23.17;;;14.87;;
10465;SDS011;5280;42.600;23.556;2024-01-15T10:01:54;22.30;;;13.83;;
10465;SDS011;5280;42.600;23.556;2024-01-15T10:04:23;24.80;;;15.77;;
10465;SDS011;5280;42.600;23.556;2024-01-15T10:06:52;27.47;;;18.77;;
10465;SDS011;5280;42.600;23.556;2024-01-15T10:09:20;27.90;;;16.50;;
10465;SDS011;5280;42.600;23.556;2024-01-15T10:11:47;20.50;;;14.43;;
10465;SDS011;5280;42.600;23.556;2024-01-15T10:14:14;24.20;;;15.07;;
10465;SDS011;5280;42.600;23.556;2024-01-15T10:16:41;23.27;;;14.37;;
10465;SDS011;5280;42.600;23.556;2024-01-15T10:19:09;23.30;;;15.13;;
10465;SDS011;5280;42.600;23.556;2024-01-15T10:21:37;24.60;;;15.17;;
10465;SDS011;5280;42.600;23.556;2024-01-15T10:24:06;23.60;;;15.27;;
10465;SDS011;5280;42.600;23.556;2024-01-15T10:26:33;23.77;;;15.53;;
10465;SDS011;5280;42.600;23.556;2024-01-15T10:29:00;25.50;;;15.67;;
10465;SDS011;5280;42.600;23.556;2024-01-15T10:31:27;26.13;;;15.40;;
10465;SDS011;5280;42.600;23.556;2024-01-15T10:33:55;22.53;;;15.57;;
10465;SDS011;5280;42.600;23.556;2024-01-15T10:36:40;22.70;;;14.67;;
10465;SDS011;5280;42.600;23.556;2024-01-15T10:39:09;22.63;;;14.93;;
10465;SDS011;5280;42.600;23.556;2024-01-15T10:41:37;28.80;;;17.90;;
10465;SDS011;5280;42.600;23.556;2024-01-15T10:44:04;24.60;;;15.70;;
10465;SDS011;5280;42.600;23.556;2024-01-15T10:46:31;20.73;;;13.67;;
10465;SDS011;5280;42.600;23.556;2024-01-15T10:49:00;25.40;;;13.77;;
10465;SDS011;5280;42.600;23.556;2024-01-15T10:51:27;19.37;;;12.43;;
10465;SDS011;5280;42.600;23.556;2024-01-15T10:53:55;22.77;;;15.03;;
10465;SDS011;5280;42.600;23.556;2024-01-15T10:56:24;22.57;;;13.13;;
10465;SDS011;5280;42.600;23.556;2024-01-15T10:58:54;21.87;;;12.87;;
10465;SDS011;5280;42.600;23.556;2024-01-15T11:01:35;20.33;;;13.07;;
10465;SDS011;5280;42.600;23.556;2024-01-15T11:04:03;20.53;;;13.10;;
10465;SDS011;5280;42.600;23.556;2024-01-15T11:06:40;17.87;;;12.17;;
10465;SDS011;5280;42.600;23.556;2024-01-15T11:09:09;19.77;;;11.87;;
10465;SDS011;5280;42.600;23.556;2024-01-15T11:11:41;19.67;;;13.03;;
10465;SDS011;5280;42.600;23.556;2024-01-15T11:14:10;19.13;;;12.13;;
10465;SDS011;5280;42.600;23.556;2024-01-15T11:19:24;16.17;;;11.23;;
10465;SDS011;5280;42.600;23.556;2024-01-15T11:21:52;17.97;;;11.37;;
10465;SDS011;5280;42.600;23.556;2024-01-15T11:24:33;17.00;;;11.07;;
10465;SDS011;5280;42.600;23.556;2024-01-15T11:27:03;18.10;;;11.80;;
10465;SDS011;5280;42.600;23.556;2024-01-15T11:29:31;17.67;;;10.97;;
10465;SDS011;5280;42.600;23.556;2024-01-15T11:32:01;16.23;;;11.13;;
10465;SDS011;5280;42.600;23.556;2024-01-15T11:37:20;15.23;;;10.70;;
10465;SDS011;5280;42.600;23.556;2024-01-15T11:39:49;12.73;;;10.27;;
10465;SDS011;5280;42.600;23.556;2024-01-15T11:42:20;14.50;;;10.47;;
10465;SDS011;5280;42.600;23.556;2024-01-15T11:44:48;18.73;;;10.53;;
10465;SDS011;5280;42.600;23.556;2024-01-15T11:47:17;14.60;;;10.80;;
10465;SDS011;5280;42.600;23.556;2024-01-15T11:50:12;15.73;;;10.27;;
10465;SDS011;5280;42.600;23.556;2024-01-15T11:52:40;13.73;;;9.73;;
10465;SDS011;5280;42.600;23.556;2024-01-15T11:55:15;13.67;;;9.47;;
10465;SDS011;5280;42.600;23.556;2024-01-15T11:57:49;14.60;;;9.73;;
10465;SDS011;5280;42.600;23.556;2024-01-15T12:00:17;15.83;;;9.77;;
10465;SDS011;5280;42.600;23.556;2024-01-15T12:02:45;13.73;;;9.43;;
10465;SDS011;5280;42.600;23.556;2024-01-15T12:05:14;18.47;;;9.93;;
10465;SDS011;5280;42.600;23.556;2024-01-15T12:07:43;15.07;;;10.23;;
10465;SDS011;5280;42.600;23.556;2024-01-15T12:10:11;14.47;;;9.83;;
10465;SDS011;5280;42.600;23.556;2024-01-15T12:12:41;22.53;;;10.60;;
10465;SDS011;5280;42.600;23.556;2024-01-15T12:15:22;13.03;;;9.13;;
10465;SDS011;5280;42.600;23.556;2024-01-15T12:17:50;14.47;;;8.77;;
10465;SDS011;5280;42.600;23.556;2024-01-15T12:20:17;12.13;;;8.93;;
10465;SDS011;5280;42.600;23.556;2024-01-15T12:22:45;12.33;;;8.30;;
10465;SDS011;5280;42.600;23.556;2024-01-15T12:25:12;9.50;;;7.20;;
10465;SDS011;5280;42.600;23.556;2024-01-15T12:27:39;12.17;;;8.17;;
10465;SDS011;5280;42.600;23.556;2024-01-15T12:30:09;10.93;;;7.80;;
10465;SDS011;5280;42.600;23.556;2024-01-15T12:32:37;11.73;;;7.90;;
10465;SDS011;5280;42.600;23.556;2024-01-15T12:35:06;10.60;;;8.00;;
10465;SDS011;5280;42.600;23.556;2024-01-15T12:37:35;12.00;;;7.83;;
10465;SDS011;5280;42.600;23.556;2024-01-15T12:40:02;10.43;;;8.00;;
10465;SDS011;5280;42.600;23.556;2024-01-15T12:42:32;10.63;;;7.40;;
10465;SDS011;5280;42.600;23.556;2024-01-15T12:44:59;12.93;;;7.73;;
10465;SDS011;5280;42.600;23.556;2024-01-15T12:47:28;11.00;;;7.03;;
10465;SDS011;5280;42.600;23.556;2024-01-15T12:49:56;8.43;;;6.40;;
10465;SDS011;5280;42.600;23.556;2024-01-15T12:52:26;8.43;;;6.63;;
10465;SDS011;5280;42.600;23.556;2024-01-15T12:54:53;10.23;;;6.47;;
10465;SDS011;5280;42.600;23.556;2024-01-15T12:57:20;17.67;;;11.10;;
10465;SDS011;5280;42.600;23.556;2024-01-15T12:59:49;20.70;;;12.07;;
10465;SDS011;5280;42.600;23.556;2024-01-15T13:02:16;19.67;;;13.30;;
10465;SDS011;5280;42.600;23.556;2024-01-15T13:04:45;18.10;;;11.40;;
10465;SDS011;5280;42.600;23.556;2024-01-15T13:07:15;9.13;;;6.40;;
10465;SDS011;5280;42.600;23.556;2024-01-15T13:09:42;9.33;;;6.77;;
10465;SDS011;5280;42.600;23.556;2024-01-15T13:12:09;8.10;;;5.03;;
10465;SDS011;5280;42.600;23.556;2024-01-15T13:14:37;7.30;;;5.13;;
10465;SDS011;5280;42.600;23.556;2024-01-15T13:17:06;9.37;;;7.00;;
10465;SDS011;5280;42.600;23.556;2024-01-15T13:19:34;7.13;;;5.40;;
10465;SDS011;5280;42.600;23.556;2024-01-15T13:22:03;5.67;;;4.90;;
10465;SDS011;5280;42.600;23.556;2024-01-15T13:24:32;3.77;;;2.80;;
10465;SDS011;5280;42.600;23.556;2024-01-15T13:26:59;2.60;;;2.20;;
10465;SDS011;5280;42.600;23.556;2024-01-15T13:29:26;2.67;;;2.47;;
10465;SDS011;5280;42.600;23.556;2024-01-15T13:31:53;3.60;;;2.33;;
10465;SDS011;5280;42.600;23.556;2024-01-15T13:34:20;2.83;;;2.40;;
10465;SDS011;5280;42.600;23.556;2024-01-15T13:36:47;2.67;;;2.33;;
10465;SDS011;5280;42.600;23.556;2024-01-15T13:39:16;2.57;;;2.23;;
10465;SDS011;5280;42.600;23.556;2024-01-15T13:41:45;2.57;;;2.37;;
10465;SDS011;5280;42.600;23.556;2024-01-15T13:44:12;2.50;;;2.30;;
10465;SDS011;5280;42.600;23.556;2024-01-15T13:46:39;4.53;;;2.43;;
10465;SDS011;5280;42.600;23.556;2024-01-15T13:49:06;2.27;;;2.07;;
10465;SDS011;5280;42.600;23.556;2024-01-15T13:51:34;2.30;;;2.10;;
10465;SDS011;5280;42.600;23.556;2024-01-15T13:54:02;2.30;;;2.00;;
10465;SDS011;5280;42.600;23.556;2024-01-15T13:56:31;2.50;;;2.10;;
10465;SDS011;5280;42.600;23.556;2024-01-15T13:59:00;2.13;;;1.90;;
10465;SDS011;5280;42.600;23.556;2024-01-15T14:01:29;3.00;;;2.43;;
10465;SDS011;5280;42.600;23.556;2024-01-15T14:03:56;2.20;;;2.00;;
10465;SDS011;5280;42.600;23.556;2024-01-15T14:06:23;12.90;;;8.40;;
10465;SDS011;5280;42.600;23.556;2024-01-15T14:08:51;17.07;;;11.20;;
10465;SDS011;5280;42.600;23.556;2024-01-15T14:11:18;12.53;;;9.30;;
10465;SDS011;5280;42.600;23.556;2024-01-15T14:13:47;11.60;;;8.33;;
10465;SDS011;5280;42.600;23.556;2024-01-15T14:16:14;10.43;;;7.30;;
10465;SDS011;5280;42.600;23.556;2024-01-15T14:18:41;6.50;;;4.80;;
10465;SDS011;5280;42.600;23.556;2024-01-15T14:21:08;3.57;;;2.80;;
10465;SDS011;5280;42.600;23.556;2024-01-15T14:23:35;2.57;;;2.30;;
10465;SDS011;5280;42.600;23.556;2024-01-15T14:26:03;3.23;;;2.80;;
10465;SDS011;5280;42.600;23.556;2024-01-15T14:28:30;4.00;;;2.90;;
10465;SDS011;5280;42.600;23.556;2024-01-15T14:31:01;4.27;;;2.53;;
10465;SDS011;5280;42.600;23.556;2024-01-15T14:33:30;3.37;;;3.07;;
10465;SDS011;5280;42.600;23.556;2024-01-15T14:35:58;3.10;;;2.80;;
10465;SDS011;5280;42.600;23.556;2024-01-15T14:38:25;5.17;;;3.30;;
10465;SDS011;5280;42.600;23.556;2024-01-15T14:40:52;4.50;;;3.13;;
10465;SDS011;5280;42.600;23.556;2024-01-15T14:43:19;3.97;;;3.13;;
10465;SDS011;5280;42.600;23.556;2024-01-15T14:45:46;4.27;;;3.00;;
10465;SDS011;5280;42.600;23.556;2024-01-15T14:48:15;3.80;;;3.40;;